KDFW/DFW METAR and TAF weather

Enter ICAO airport designator
Station Type Date Time Source
KDFW METAR 2017/10/19 06:53 UTC NOAA

KDFW 190653Z 17009KT 10SM BKN300 19/09 A3009 RMK AO2 SLP181 T01890089


Station Type Date Time Source
KDFW Decoded METAR 2017/10/19 06:53 UTC NOAA

DALLAS/FT. WORTH INTERNATIONAL AIRPORT , TX, United States (KDFW) 32-54N 097-02W 174M
Oct 19, 2017 - 02:53 AM EDT / 2017.10.19 0653 UTC
Wind: from the S (170 degrees) at 10 MPH (9 KT):0
Visibility: 10 mile(s):0
Sky conditions: mostly cloudy
Temperature: 66.0 F (18.9 C)
Dew Point: 48.0 F (8.9 C)
Relative Humidity: 52%
Pressure (altimeter): 30.09 in. Hg (1018 hPa)
ob: KDFW 190653Z 17009KT 10SM BKN300 19/09 A3009 RMK AO2 SLP181 T01890089
cycle: 7

Station Type Date Time Source
KDFW TAF 2017/10/19 06:22 UTC NOAA

TAF KDFW 190520Z 1906/2012 16010KT P6SM BKN300
FM192300 13008KT P6SM SCT060 BKN300


Example: see airport list